Elleair Taio — 3EAU5 — position and weather

sailwx.info

Track history (hours):
 
Tides and Currents Weather Stations Pressure Air Temp Water Temp Dewpoint Dewpoint Depression Visibility Wind Speed Wind Dir Waves Ship Positions

Elleair Taio

Last reported at 2016-Feb-06 21:33 UTC. Time now 2016-Feb-10 06:46 UTC.
Position N 40°14' E 000°39'.

Type: Other ship. MMSI: 363654000.

Date/timePositionNaut miles runAvg speedWind from/ knotsBaromVisibWave heightAir tempDewpointWater temp
2016-Feb-06 21:33N 40°14' E 000°39'10 9.6
2016-Feb-06 20:33N 40°20' E 000°49'9 9.5
2016-Feb-06 19:33N 40°25' E 000°60'10 9.5
2016-Feb-06 18:33N 40°30' E 001°10'10 9.5
2016-Feb-06 17:33N 40°35' E 001°21'19 9.7
2016-Feb-06 15:32N 40°47' E 001°41'10 9.9
2016-Feb-06 14:33N 40°53' E 001°51'1010.1
2016-Feb-06 13:33N 40°60' E 002°01'1010.1
2016-Feb-06 12:31N 41°07' E 002°11'1010.0
2016-Feb-06 11:32N 41°13' E 002°21'10 9.7
2016-Feb-06 10:32N 41°19' E 002°31'49 9.3
2016-Feb-06 05:15N 41°52' E 003°21'24 8.7
2016-Feb-06 02:33N 42°15' E 003°29'9 9.1
2016-Feb-06 01:33N 42°23' E 003°32'9 9.1
2016-Feb-06 00:33N 42°32' E 003°35'10 9.3
2016-Feb-05 23:31N 42°41' E 003°38'43 8.4
2016-Feb-05 18:26N 43°24' E 003°43'0 0.0
2016-Feb-05 17:32N 43°24' E 003°43'0 0.0
2016-Feb-05 16:28N 43°24' E 003°43'0 0.0
2016-Feb-05 15:30N 43°24' E 003°43'0 0.0
2016-Feb-05 14:33N 43°24' E 003°43'0 0.0
2016-Feb-05 10:26N 43°24' E 003°43'0 0.0
2016-Feb-05 09:25N 43°24' E 003°43'0 0.0
2016-Feb-05 08:28N 43°24' E 003°43'0 0.0
2016-Feb-05 07:33N 43°24' E 003°43'0 0.0
2016-Feb-05 06:33N 43°24' E 003°43'0 0.0
2016-Feb-04 14:23N 43°24' E 003°43'0 0.0
2016-Feb-04 13:13N 43°24' E 003°43'0 0.0
2016-Feb-04 09:25N 43°24' E 003°43'0 0.0
2016-Feb-04 08:19N 43°24' E 003°43'2 0.6
2016-Feb-04 05:19N 43°24' E 003°45'5 6.2
2016-Feb-04 04:33N 43°20' E 003°49'7 7.3
2016-Feb-04 03:34N 43°16' E 003°58'7 7.4
2016-Feb-04 02:33N 43°13' E 004°07'7 7.1
2016-Feb-04 01:33N 43°10' E 004°15'7 6.9
2016-Feb-04 00:33N 43°06' E 004°24'7 6.8
2016-Feb-03 23:33N 43°03' E 004°32'6 6.5
2016-Feb-03 22:33N 42°60' E 004°40'6 6.4
2016-Feb-03 21:33N 42°56' E 004°47'6 5.5
2016-Feb-03 20:34N 42°53' E 004°53'5 5.3
2016-Feb-03 19:33N 42°50' E 004°59'4 4.5
2016-Feb-03 18:33N 42°48' E 005°04'4 3.9
2016-Feb-03 17:28N 42°46' E 005°09'4 3.9
2016-Feb-03 16:31N 42°45' E 005°14'  
2016-Jan-31 20:30N 38°31' E 015°14'11 8.7
2016-Jan-31 19:16N 38°25' E 015°26'6 8.9
2016-Jan-31 18:33N 38°22' E 015°33'12 5.7
2016-Jan-31 16:31N 38°11' E 015°37'8 7.9
2016-Jan-31 15:32N 38°03' E 015°37'11 8.0
2016-Jan-31 14:05N 37°52' E 015°33'4 7.7
2016-Jan-31 13:31N 37°48' E 015°31'17 7.9
2016-Jan-31 11:22N 37°31' E 015°24'11 1.2
2016-Jan-31 02:06N 37°21' E 015°27'14 8.8
2016-Jan-31 00:29N 37°31' E 015°39'17 8.8
2016-Jan-30 22:32N 37°43' E 015°54'  
Track history (hours):
 
Tides and Currents Weather Stations Pressure Air Temp Water Temp Dewpoint Dewpoint Depression Visibility Wind Speed Wind Dir Waves Ship Positions

Elleair Taio

Last reported at 2016-Feb-06 21:33 UTC. Time now 2016-Feb-10 06:46 UTC.
Position N 40°14' E 000°39'.

Type: Other ship. MMSI: 363654000.

Date/timePositionNaut miles runAvg speedWind from/ knotsBaromVisibWave heightAir tempDewpointWater temp
2016-Feb-06 21:33N 40°14' E 000°39'10 9.6
2016-Feb-06 20:33N 40°20' E 000°49'9 9.5
2016-Feb-06 19:33N 40°25' E 000°60'10 9.5
2016-Feb-06 18:33N 40°30' E 001°10'10 9.5
2016-Feb-06 17:33N 40°35' E 001°21'19 9.7
2016-Feb-06 15:32N 40°47' E 001°41'10 9.9
2016-Feb-06 14:33N 40°53' E 001°51'1010.1
2016-Feb-06 13:33N 40°60' E 002°01'1010.1
2016-Feb-06 12:31N 41°07' E 002°11'1010.0
2016-Feb-06 11:32N 41°13' E 002°21'10 9.7
2016-Feb-06 10:32N 41°19' E 002°31'49 9.3
2016-Feb-06 05:15N 41°52' E 003°21'24 8.7
2016-Feb-06 02:33N 42°15' E 003°29'9 9.1
2016-Feb-06 01:33N 42°23' E 003°32'9 9.1
2016-Feb-06 00:33N 42°32' E 003°35'10 9.3
2016-Feb-05 23:31N 42°41' E 003°38'43 8.4
2016-Feb-05 18:26N 43°24' E 003°43'0 0.0
2016-Feb-05 17:32N 43°24' E 003°43'0 0.0
2016-Feb-05 16:28N 43°24' E 003°43'0 0.0
2016-Feb-05 15:30N 43°24' E 003°43'0 0.0
2016-Feb-05 14:33N 43°24' E 003°43'0 0.0
2016-Feb-05 10:26N 43°24' E 003°43'0 0.0
2016-Feb-05 09:25N 43°24' E 003°43'0 0.0
2016-Feb-05 08:28N 43°24' E 003°43'0 0.0
2016-Feb-05 07:33N 43°24' E 003°43'0 0.0
2016-Feb-05 06:33N 43°24' E 003°43'0 0.0
2016-Feb-04 14:23N 43°24' E 003°43'0 0.0
2016-Feb-04 13:13N 43°24' E 003°43'0 0.0
2016-Feb-04 09:25N 43°24' E 003°43'0 0.0
2016-Feb-04 08:19N 43°24' E 003°43'2 0.6
2016-Feb-04 05:19N 43°24' E 003°45'5 6.2
2016-Feb-04 04:33N 43°20' E 003°49'7 7.3
2016-Feb-04 03:34N 43°16' E 003°58'7 7.4
2016-Feb-04 02:33N 43°13' E 004°07'7 7.1
2016-Feb-04 01:33N 43°10' E 004°15'7 6.9
2016-Feb-04 00:33N 43°06' E 004°24'7 6.8
2016-Feb-03 23:33N 43°03' E 004°32'6 6.5
2016-Feb-03 22:33N 42°60' E 004°40'6 6.4
2016-Feb-03 21:33N 42°56' E 004°47'6 5.5
2016-Feb-03 20:34N 42°53' E 004°53'5 5.3
2016-Feb-03 19:33N 42°50' E 004°59'4 4.5
2016-Feb-03 18:33N 42°48' E 005°04'4 3.9
2016-Feb-03 17:28N 42°46' E 005°09'4 3.9
2016-Feb-03 16:31N 42°45' E 005°14'  
2016-Jan-31 20:30N 38°31' E 015°14'11 8.7
2016-Jan-31 19:16N 38°25' E 015°26'6 8.9
2016-Jan-31 18:33N 38°22' E 015°33'12 5.7
2016-Jan-31 16:31N 38°11' E 015°37'8 7.9
2016-Jan-31 15:32N 38°03' E 015°37'11 8.0
2016-Jan-31 14:05N 37°52' E 015°33'4 7.7
2016-Jan-31 13:31N 37°48' E 015°31'17 7.9
2016-Jan-31 11:22N 37°31' E 015°24'11 1.2
2016-Jan-31 02:06N 37°21' E 015°27'14 8.8
2016-Jan-31 00:29N 37°31' E 015°39'17 8.8
2016-Jan-30 22:32N 37°43' E 015°54'  

Dump ship's entire track history